Time;durP1;ratioP1;P1;durP2;ratioP2;P2;SDS_P1;SDS_P2;PMS_P1;PMS_P2;Temp;Humidity;BMP_temperature;BMP_pressure;BME280_temperature;BME280_humidity;BME280_pressure;Samples;Min_cycle;Max_cycle;Signal;HPM_P1;HPM_P2
2021/12/12 00:01:44;;;;;;;12.87;4.90;;;2.70;99.90;;;;;;5012673;28;20576;-70
2021/12/12 00:04:19;;;;;;;18.60;4.60;;;2.60;99.90;;;;;;5013038;28;20880;-70
2021/12/12 00:06:48;;;;;;;15.73;4.70;;;2.60;99.90;;;;;;5028821;28;20444;-71
2021/12/12 00:09:18;;;;;;;14.13;4.30;;;2.60;99.90;;;;;;5012715;28;20496;-69
2021/12/12 00:11:46;;;;;;;16.63;5.17;;;2.60;99.90;;;;;;5013260;28;20461;-70
2021/12/12 00:14:17;;;;;;;13.13;4.63;;;2.60;99.90;;;;;;5011948;28;20478;-70
2021/12/12 00:16:44;;;;;;;13.00;4.30;;;2.50;99.90;;;;;;5012590;28;20516;-69
2021/12/12 00:19:13;;;;;;;9.57;4.30;;;2.40;99.90;;;;;;5014378;28;20458;-70
2021/12/12 00:21:42;;;;;;;8.00;3.97;;;2.40;99.90;;;;;;4997608;28;20466;-69
2021/12/12 00:24:11;;;;;;;23.87;4.10;;;2.30;99.90;;;;;;5014608;28;20473;-70
2021/12/12 00:26:38;;;;;;;8.00;4.90;;;2.30;99.90;;;;;;5032814;28;20473;-70
2021/12/12 00:29:07;;;;;;;9.10;4.33;;;2.30;99.90;;;;;;5026387;28;20450;-69
2021/12/12 00:31:34;;;;;;;8.80;4.30;;;2.20;99.90;;;;;;5016770;28;20597;-69
2021/12/12 00:34:01;;;;;;;13.93;4.40;;;2.20;99.90;;;;;;5024602;28;20535;-70
2021/12/12 00:36:32;;;;;;;17.23;4.67;;;2.20;99.90;;;;;;5036446;28;20558;-70
2021/12/12 00:39:02;;;;;;;11.10;4.10;;;2.10;99.90;;;;;;5016697;28;20834;-70
2021/12/12 00:41:32;;;;;;;23.50;4.40;;;2.10;99.90;;;;;;4997739;28;20447;-70
2021/12/12 00:44:00;;;;;;;9.40;4.10;;;2.10;99.90;;;;;;5004374;28;20470;-70
2021/12/12 00:46:27;;;;;;;9.90;4.27;;;2.10;99.90;;;;;;5007564;28;20477;-70
2021/12/12 00:48:55;;;;;;;11.20;3.90;;;2.10;99.90;;;;;;5015882;28;20465;-69
2021/12/12 00:51:27;;;;;;;9.47;4.70;;;2.10;99.90;;;;;;5017286;28;20508;-69
2021/12/12 00:53:56;;;;;;;12.67;5.23;;;2.00;99.90;;;;;;5024549;28;20473;-69
2021/12/12 00:56:23;;;;;;;11.83;4.10;;;2.00;99.90;;;;;;5035592;28;20507;-70
2021/12/12 00:58:50;;;;;;;13.80;3.97;;;1.90;99.90;;;;;;5023530;28;20450;-70
2021/12/12 01:01:20;;;;;;;10.60;4.60;;;1.90;99.90;;;;;;5018581;28;20476;-69
2021/12/12 01:03:50;;;;;;;12.87;5.03;;;1.90;99.90;;;;;;5015585;28;20888;-69
2021/12/12 01:06:19;;;;;;;9.70;5.17;;;1.90;99.90;;;;;;5015661;28;20880;-69
2021/12/12 01:08:48;;;;;;;8.70;5.13;;;1.90;99.90;;;;;;5015849;28;20458;-69
2021/12/12 01:11:20;;;;;;;10.57;4.77;;;1.80;99.90;;;;;;5024582;28;20449;-70
2021/12/12 01:13:47;;;;;;;10.00;4.90;;;1.80;99.90;;;;;;5026692;28;20907;-70
2021/12/12 01:16:18;;;;;;;13.03;4.80;;;1.80;99.90;;;;;;5019719;28;20535;-69
2021/12/12 01:18:51;;;;;;;13.13;4.73;;;1.70;99.90;;;;;;5015234;28;20454;-70
2021/12/12 01:21:22;;;;;;;13.07;5.80;;;1.80;99.90;;;;;;5015760;28;20508;-70
2021/12/12 01:23:52;;;;;;;16.07;5.37;;;1.70;99.90;;;;;;5015354;28;20470;-70
2021/12/12 01:26:20;;;;;;;8.93;5.00;;;1.60;99.90;;;;;;5016848;28;20462;-69
2021/12/12 01:28:53;;;;;;;19.10;6.80;;;1.60;99.90;;;;;;5015162;28;20454;-70
2021/12/12 01:31:25;;;;;;;18.97;5.33;;;1.50;99.90;;;;;;5015295;28;20679;-69
2021/12/12 01:33:58;;;;;;;12.27;6.57;;;1.40;99.90;;;;;;5028941;28;20480;-71
2021/12/12 01:36:27;;;;;;;14.50;6.17;;;1.30;99.90;;;;;;5026920;28;20821;-70
2021/12/12 01:38:56;;;;;;;14.80;6.37;;;1.30;99.90;;;;;;5014395;28;20857;-70
2021/12/12 01:41:28;;;;;;;14.00;5.60;;;1.10;99.90;;;;;;5033756;28;20969;-70
2021/12/12 01:44:02;;;;;;;12.10;6.00;;;1.10;99.90;;;;;;5019658;28;20531;-70
2021/12/12 01:46:33;;;;;;;13.23;5.80;;;1.00;99.90;;;;;;5014551;28;20512;-70
2021/12/12 01:49:04;;;;;;;8.03;5.90;;;1.00;99.90;;;;;;5015141;28;20616;-70
2021/12/12 01:51:32;;;;;;;17.10;5.60;;;0.90;99.90;;;;;;5015161;28;20458;-70
2021/12/12 01:54:01;;;;;;;9.73;6.30;;;0.90;99.90;;;;;;5006898;28;20493;-69
2021/12/12 01:56:33;;;;;;;12.03;5.73;;;0.90;99.90;;;;;;5010878;28;20881;-69
2021/12/12 01:59:04;;;;;;;15.10;5.83;;;0.80;99.90;;;;;;5014391;28;20458;-70
2021/12/12 02:01:35;;;;;;;7.20;5.57;;;0.80;99.90;;;;;;5011962;28;20454;-69
2021/12/12 02:04:05;;;;;;;11.40;5.30;;;0.80;99.90;;;;;;5014641;28;20470;-69
2021/12/12 02:06:32;;;;;;;10.90;5.70;;;0.80;99.90;;;;;;5034544;28;20503;-69
2021/12/12 02:09:00;;;;;;;14.40;5.13;;;0.80;99.90;;;;;;5026694;28;20942;-70
2021/12/12 02:11:31;;;;;;;12.47;5.67;;;0.80;99.90;;;;;;5014985;28;20455;-70
2021/12/12 02:14:07;;;;;;;9.23;4.90;;;0.80;99.90;;;;;;5014401;28;20478;-69
2021/12/12 02:16:35;;;;;;;11.77;4.77;;;0.80;99.90;;;;;;5017433;28;20461;-70
2021/12/12 02:19:03;;;;;;;8.33;5.00;;;0.90;99.90;;;;;;5027110;28;20481;-70
2021/12/12 02:21:39;;;;;;;8.60;5.60;;;0.80;99.90;;;;;;5014303;28;20846;-73
2021/12/12 02:24:37;;;;;;;15.37;6.63;;;0.80;99.90;;;;;;5018107;28;20561;-70
2021/12/12 02:35:31;;;;;;;18.53;7.60;;;0.80;99.90;;;;;;5016575;28;20448;-70
2021/12/12 02:38:00;;;;;;;16.73;7.27;;;0.70;99.90;;;;;;5016358;28;20508;-70
2021/12/12 02:40:31;;;;;;;12.93;7.97;;;0.70;99.90;;;;;;5013534;28;20485;-69
2021/12/12 02:42:58;;;;;;;17.03;8.60;;;0.70;99.90;;;;;;5028707;28;20477;-70
2021/12/12 02:45:28;;;;;;;13.57;7.10;;;0.60;99.90;;;;;;5014242;28;20509;-70
2021/12/12 02:47:59;;;;;;;15.67;7.77;;;0.60;99.90;;;;;;5015498;28;20450;-70
2021/12/12 02:50:34;;;;;;;21.60;8.07;;;0.60;99.90;;;;;;5013910;28;20454;-70
2021/12/12 02:53:06;;;;;;;19.07;10.53;;;0.50;99.90;;;;;;5015677;28;20524;-70
2021/12/12 02:55:38;;;;;;;17.10;8.13;;;0.50;99.90;;;;;;5010699;28;20453;-70
2021/12/12 02:58:08;;;;;;;22.63;10.80;;;0.50;99.90;;;;;;5033516;28;20489;-69
2021/12/12 03:00:40;;;;;;;18.83;8.90;;;0.50;99.90;;;;;;5029310;28;20454;-69
2021/12/12 03:03:08;;;;;;;17.90;8.50;;;0.50;99.90;;;;;;5021573;28;20465;-70
2021/12/12 03:05:40;;;;;;;18.60;7.97;;;0.50;99.90;;;;;;5026404;28;20454;-70
2021/12/12 03:08:07;;;;;;;17.53;8.57;;;0.40;99.90;;;;;;5013565;28;20461;-69
2021/12/12 03:10:39;;;;;;;30.93;8.73;;;0.40;99.90;;;;;;5014000;28;20459;-70
2021/12/12 03:13:07;;;;;;;14.20;7.50;;;0.50;99.90;;;;;;5015584;28;20907;-70
2021/12/12 03:15:38;;;;;;;13.43;7.93;;;0.40;99.90;;;;;;5013553;28;20516;-70
2021/12/12 03:18:09;;;;;;;16.93;8.73;;;0.40;99.90;;;;;;5013744;28;21075;-69
2021/12/12 03:20:41;;;;;;;14.50;9.10;;;0.40;99.90;;;;;;5014223;28;20798;-70
2021/12/12 03:23:14;;;;;;;21.87;9.00;;;0.40;99.90;;;;;;5028084;28;20481;-69
2021/12/12 03:25:44;;;;;;;17.10;8.33;;;0.30;99.90;;;;;;5013506;28;20504;-71
2021/12/12 03:28:13;;;;;;;16.83;8.57;;;0.30;99.90;;;;;;5013763;28;20497;-70
2021/12/12 03:30:42;;;;;;;18.80;7.70;;;0.30;99.90;;;;;;5012752;28;20454;-70
2021/12/12 03:33:09;;;;;;;19.30;9.03;;;0.30;99.90;;;;;;5030080;28;20484;-70
2021/12/12 03:35:36;;;;;;;25.53;8.43;;;0.30;99.90;;;;;;5029570;28;20442;-71
2021/12/12 03:38:04;;;;;;;14.43;8.00;;;0.20;99.90;;;;;;5013603;28;20617;-70
2021/12/12 03:40:36;;;;;;;25.27;7.87;;;0.30;99.90;;;;;;5012974;28;20811;-70
2021/12/12 03:43:06;;;;;;;14.27;7.93;;;0.30;99.90;;;;;;5028345;28;20551;-71
2021/12/12 03:45:33;;;;;;;17.53;8.00;;;0.20;99.90;;;;;;5013724;28;20462;-71
2021/12/12 03:48:08;;;;;;;16.33;7.53;;;0.30;99.90;;;;;;5033429;28;20441;-70
2021/12/12 03:50:37;;;;;;;17.73;7.83;;;0.30;99.90;;;;;;5032787;28;20460;-69
2021/12/12 03:53:04;;;;;;;19.53;7.50;;;0.20;99.90;;;;;;5016931;28;20474;-70
2021/12/12 03:55:31;;;;;;;17.23;8.20;;;0.30;99.90;;;;;;5016422;28;20449;-70
2021/12/12 03:57:59;;;;;;;12.10;7.20;;;0.30;99.90;;;;;;5030971;28;20489;-70
2021/12/12 04:00:31;;;;;;;22.60;7.47;;;0.20;99.90;;;;;;5017914;28;20450;-70
2021/12/12 04:02:59;;;;;;;11.47;5.80;;;0.30;99.90;;;;;;5012996;28;20466;-71
2021/12/12 04:05:28;;;;;;;16.33;8.90;;;0.30;99.90;;;;;;5016387;28;20450;-70
2021/12/12 04:07:55;;;;;;;12.40;6.37;;;0.30;99.90;;;;;;5027969;28;20492;-70
2021/12/12 04:10:24;;;;;;;15.23;6.47;;;0.30;99.90;;;;;;5010483;28;21028;-70
2021/12/12 04:12:53;;;;;;;15.40;6.60;;;0.30;99.90;;;;;;5001479;28;20574;-70
2021/12/12 04:15:20;;;;;;;14.70;6.30;;;0.40;99.90;;;;;;5011944;28;21230;-70
2021/12/12 04:17:48;;;;;;;7.60;5.87;;;0.40;99.90;;;;;;5019288;28;20896;-70
2021/12/12 04:20:19;;;;;;;15.10;7.13;;;0.40;99.90;;;;;;5026746;28;20453;-70
2021/12/12 04:22:46;;;;;;;17.13;6.83;;;0.40;99.90;;;;;;5030488;28;20500;-70
2021/12/12 04:25:14;;;;;;;19.97;8.23;;;0.40;99.90;;;;;;5024142;28;20454;-69
2021/12/12 04:27:41;;;;;;;10.97;7.07;;;0.50;99.90;;;;;;5012814;28;20458;-69
2021/12/12 04:30:11;;;;;;;13.90;7.40;;;0.50;99.90;;;;;;5012365;28;20894;-71
2021/12/12 04:32:38;;;;;;;12.50;7.20;;;0.60;99.90;;;;;;5011361;28;20485;-69
2021/12/12 04:35:10;;;;;;;14.57;7.67;;;0.60;99.90;;;;;;5014649;28;20450;-69
2021/12/12 04:37:38;;;;;;;13.93;7.37;;;0.60;99.90;;;;;;5013096;28;20529;-69
2021/12/12 04:40:08;;;;;;;19.53;8.50;;;0.60;99.90;;;;;;5012079;28;20454;-70
2021/12/12 04:42:37;;;;;;;17.40;9.13;;;0.60;99.90;;;;;;5012289;28;20484;-70
2021/12/12 04:45:16;;;;;;;22.97;8.10;;;0.70;99.90;;;;;;5011783;28;20450;-72
2021/12/12 04:50:42;;;;;;;12.80;7.67;;;0.80;99.90;;;;;;5022225;28;20449;-70
2021/12/12 04:53:14;;;;;;;16.93;8.50;;;0.70;99.90;;;;;;5012213;28;20478;-69
2021/12/12 04:55:51;;;;;;;19.87;8.83;;;0.80;99.90;;;;;;5010941;28;21118;-70
2021/12/12 04:58:21;;;;;;;23.13;9.20;;;0.80;99.90;;;;;;5017760;28;20490;-71
2021/12/12 05:00:53;;;;;;;19.10;9.07;;;0.80;99.90;;;;;;5025370;28;20826;-69
2021/12/12 05:03:31;;;;;;;25.70;9.70;;;0.80;99.90;;;;;;5013017;28;20911;-69
2021/12/12 05:06:04;;;;;;;23.67;9.30;;;0.80;99.90;;;;;;5026921;28;20480;-70
2021/12/12 05:08:36;;;;;;;17.40;8.50;;;0.90;99.90;;;;;;5017832;28;20802;-69
2021/12/12 05:11:07;;;;;;;15.50;8.57;;;0.90;99.90;;;;;;5012082;28;20485;-70
2021/12/12 05:13:37;;;;;;;16.10;10.40;;;0.90;99.90;;;;;;5011995;28;20466;-70
2021/12/12 05:16:08;;;;;;;17.33;8.50;;;0.90;99.90;;;;;;5013203;28;20457;-70
2021/12/12 05:18:39;;;;;;;18.63;9.10;;;0.90;99.90;;;;;;5027655;28;20527;-70
2021/12/12 05:21:10;;;;;;;25.07;9.80;;;0.90;99.90;;;;;;5034500;28;20449;-70
2021/12/12 05:23:39;;;;;;;20.53;10.03;;;0.90;99.90;;;;;;5015096;28;20482;-70
2021/12/12 05:26:18;;;;;;;29.60;11.13;;;0.80;99.90;;;;;;5015171;28;20454;-70
2021/12/12 05:28:48;;;;;;;25.10;11.00;;;0.80;99.90;;;;;;5027822;28;20483;-69
2021/12/12 05:31:19;;;;;;;21.73;9.77;;;0.80;99.90;;;;;;5025010;28;20458;-70
2021/12/12 05:33:49;;;;;;;20.93;10.63;;;0.80;99.90;;;;;;5040326;23;20502;-87
2021/12/12 05:36:18;;;;;;;21.63;10.37;;;0.80;99.90;;;;;;5036799;28;20461;-87
2021/12/12 05:38:46;;;;;;;18.00;9.50;;;0.80;99.90;;;;;;5064396;28;20541;-88
2021/12/12 05:41:13;;;;;;;26.50;10.93;;;0.80;99.90;;;;;;5041541;28;20484;-90
2021/12/12 05:43:40;;;;;;;28.10;10.70;;;0.80;99.90;;;;;;5049930;28;20445;-89
2021/12/12 05:46:07;;;;;;;20.70;10.67;;;0.80;99.90;;;;;;5049613;28;20452;-89
2021/12/12 05:48:34;;;;;;;23.70;10.80;;;0.80;99.90;;;;;;5066910;28;20448;-89
2021/12/12 05:51:02;;;;;;;27.70;10.37;;;0.80;99.90;;;;;;5074307;28;20452;-89
2021/12/12 05:53:30;;;;;;;23.03;10.40;;;0.90;99.90;;;;;;5072298;28;20539;-88
2021/12/12 05:55:57;;;;;;;23.67;9.77;;;0.90;99.90;;;;;;5053362;28;20461;-88
2021/12/12 05:58:24;;;;;;;24.77;11.70;;;0.90;99.90;;;;;;5047044;28;20475;-88
2021/12/12 06:00:54;;;;;;;26.13;10.60;;;1.00;99.90;;;;;;5044161;28;20507;-88
2021/12/12 06:03:27;;;;;;;14.63;9.63;;;1.00;99.90;;;;;;5040751;28;20455;-89
2021/12/12 06:05:56;;;;;;;20.53;10.20;;;1.00;99.90;;;;;;5067137;28;20514;-89
2021/12/12 06:08:25;;;;;;;26.60;10.30;;;1.00;99.90;;;;;;5063837;28;20448;-89
2021/12/12 06:10:55;;;;;;;21.87;10.00;;;1.00;99.90;;;;;;5063817;28;20827;-88
2021/12/12 06:13:22;;;;;;;25.00;11.47;;;1.00;99.90;;;;;;5054630;28;20460;-89
2021/12/12 06:15:53;;;;;;;20.20;10.60;;;1.10;99.90;;;;;;5047614;28;20453;-89
2021/12/12 06:18:22;;;;;;;25.93;11.07;;;1.10;99.90;;;;;;5055111;28;20478;-89
2021/12/12 06:20:49;;;;;;;24.90;12.10;;;1.00;99.90;;;;;;5061331;28;20941;-89
2021/12/12 06:23:17;;;;;;;22.80;10.87;;;1.10;99.90;;;;;;5053488;28;20511;-88
2021/12/12 06:25:45;;;;;;;20.87;11.03;;;1.10;99.90;;;;;;5040064;28;20457;-89
2021/12/12 06:28:17;;;;;;;33.73;12.67;;;1.10;99.90;;;;;;5053969;28;20472;-88
2021/12/12 06:30:45;;;;;;;30.60;11.77;;;1.10;99.90;;;;;;5036955;28;21003;-89
2021/12/12 06:33:12;;;;;;;18.30;10.13;;;1.10;99.90;;;;;;5046938;28;20480;-88
2021/12/12 06:35:39;;;;;;;27.13;10.90;;;1.20;99.90;;;;;;5046845;28;20505;-88
2021/12/12 06:38:08;;;;;;;23.33;10.77;;;1.10;99.90;;;;;;5063357;28;20544;-88
2021/12/12 06:40:36;;;;;;;25.67;11.63;;;1.10;99.90;;;;;;5067558;28;20453;-89
2021/12/12 06:43:06;;;;;;;30.57;11.27;;;1.10;99.90;;;;;;5033930;28;20464;-89
2021/12/12 06:45:34;;;;;;;34.67;12.37;;;1.10;99.90;;;;;;5058148;28;20453;-89
2021/12/12 06:48:07;;;;;;;28.67;12.83;;;1.10;99.90;;;;;;5047731;28;20509;-89
2021/12/12 06:50:36;;;;;;;24.33;11.60;;;1.20;99.90;;;;;;5073763;28;20419;-89
2021/12/12 06:53:03;;;;;;;20.30;10.90;;;1.20;99.90;;;;;;5074039;28;20481;-90
2021/12/12 06:55:31;;;;;;;23.80;12.57;;;1.20;99.90;;;;;;5073763;28;20456;-90
2021/12/12 06:57:58;;;;;;;24.90;11.17;;;1.20;99.90;;;;;;5067448;28;20480;-90
2021/12/12 07:00:27;;;;;;;26.10;11.20;;;1.20;99.90;;;;;;5060842;28;20967;-91
2021/12/12 07:02:55;;;;;;;21.93;10.73;;;1.20;99.90;;;;;;5054785;28;20461;-91
2021/12/12 07:05:27;;;;;;;32.40;10.60;;;1.20;99.90;;;;;;5039516;28;20445;-91
2021/12/12 07:07:55;;;;;;;22.53;10.10;;;1.20;99.90;;;;;;5054264;28;20483;-91
2021/12/12 07:10:26;;;;;;;28.63;10.27;;;1.20;99.90;;;;;;5054195;28;20437;-89
2021/12/12 07:12:55;;;;;;;15.47;9.53;;;1.20;99.90;;;;;;5053704;28;20463;-89
2021/12/12 07:15:26;;;;;;;29.70;11.10;;;1.20;99.90;;;;;;5051052;28;20461;-89
2021/12/12 07:17:56;;;;;;;26.30;10.83;;;1.20;99.90;;;;;;5033540;28;20481;-89
2021/12/12 07:20:24;;;;;;;24.13;10.27;;;1.30;99.90;;;;;;5049289;28;20471;-89
2021/12/12 07:22:51;;;;;;;21.97;9.90;;;1.30;99.90;;;;;;5073429;28;20867;-89
2021/12/12 07:25:18;;;;;;;20.60;9.87;;;1.30;99.90;;;;;;5051337;28;20457;-89
2021/12/12 07:27:45;;;;;;;18.20;10.00;;;1.30;99.90;;;;;;5041770;28;20998;-88
2021/12/12 07:30:12;;;;;;;19.67;9.73;;;1.40;99.90;;;;;;5066926;28;20447;-88
2021/12/12 07:32:40;;;;;;;17.70;9.57;;;1.40;99.90;;;;;;5091306;28;20440;-88
2021/12/12 07:35:12;;;;;;;28.90;10.63;;;1.40;99.90;;;;;;5090659;28;20460;-90
2021/12/12 07:37:40;;;;;;;20.90;9.47;;;1.40;99.90;;;;;;5069586;28;20479;-89
2021/12/12 07:40:10;;;;;;;28.80;10.30;;;1.50;99.90;;;;;;5067936;28;20475;-89
2021/12/12 07:42:38;;;;;;;26.47;10.30;;;1.50;99.90;;;;;;5033407;28;20453;-89
2021/12/12 07:45:06;;;;;;;16.27;9.57;;;1.40;99.90;;;;;;5042572;28;20446;-90
2021/12/12 07:47:34;;;;;;;13.67;9.20;;;1.40;99.90;;;;;;5067403;28;20541;-90
2021/12/12 07:50:04;;;;;;;25.43;10.77;;;1.40;99.90;;;;;;5055527;28;20441;-89
2021/12/12 07:52:33;;;;;;;24.07;9.47;;;1.50;99.90;;;;;;5044191;28;20461;-89
2021/12/12 07:55:00;;;;;;;23.73;9.80;;;1.50;99.90;;;;;;5050098;28;20440;-90
2021/12/12 07:57:28;;;;;;;21.03;10.30;;;1.50;99.90;;;;;;5052837;28;20468;-90
2021/12/12 07:59:57;;;;;;;21.97;10.13;;;1.50;99.90;;;;;;5033511;28;20484;-90
2021/12/12 08:02:25;;;;;;;16.40;9.90;;;1.40;99.90;;;;;;5033041;28;20828;-91
2021/12/12 08:04:55;;;;;;;20.37;9.57;;;1.50;99.90;;;;;;5045358;28;20446;-89
2021/12/12 08:07:24;;;;;;;23.17;9.57;;;1.50;99.90;;;;;;5030750;28;20494;-91
2021/12/12 08:09:52;;;;;;;26.03;11.70;;;1.50;99.90;;;;;;5062295;28;20444;-90
2021/12/12 08:12:24;;;;;;;19.93;9.23;;;1.50;99.90;;;;;;5054411;28;20443;-88
2021/12/12 08:14:51;;;;;;;15.50;8.20;;;1.50;99.90;;;;;;5056229;28;20461;-87
2021/12/12 08:17:20;;;;;;;15.33;8.20;;;1.60;99.90;;;;;;5049656;28;20541;-87
2021/12/12 08:19:48;;;;;;;19.30;8.90;;;1.60;99.90;;;;;;5067868;28;20850;-88
2021/12/12 08:22:15;;;;;;;18.07;8.17;;;1.60;99.90;;;;;;5067310;28;20485;-88
2021/12/12 08:24:43;;;;;;;27.33;10.00;;;1.60;99.90;;;;;;5069281;28;20887;-90
2021/12/12 08:27:15;;;;;;;19.47;9.33;;;1.70;99.90;;;;;;5043896;28;20476;-89
2021/12/12 08:29:42;;;;;;;26.07;8.50;;;1.70;99.90;;;;;;5066939;28;20439;-89
2021/12/12 08:32:12;;;;;;;17.70;8.00;;;1.80;99.90;;;;;;5061251;28;20822;-89
2021/12/12 08:34:39;;;;;;;14.73;8.03;;;1.80;99.90;;;;;;5051602;28;20542;-88
2021/12/12 08:37:07;;;;;;;17.57;7.77;;;1.80;99.90;;;;;;5050015;28;20480;-88
2021/12/12 08:39:35;;;;;;;14.90;8.20;;;1.90;99.90;;;;;;5055683;28;20793;-87
2021/12/12 08:42:04;;;;;;;20.93;7.40;;;1.90;99.90;;;;;;5032273;28;20937;-88
2021/12/12 08:44:33;;;;;;;24.17;8.43;;;1.90;99.90;;;;;;5045588;28;20906;-90
2021/12/12 08:47:02;;;;;;;12.93;7.80;;;1.90;99.90;;;;;;5047871;28;20472;-89
2021/12/12 08:49:31;;;;;;;15.00;7.27;;;2.00;99.90;;;;;;5052837;28;20955;-90
2021/12/12 08:52:05;;;;;;;11.60;7.10;;;2.00;99.90;;;;;;5058536;28;20452;-89
2021/12/12 08:54:34;;;;;;;11.83;7.10;;;2.00;99.90;;;;;;5058311;28;20539;-91
2021/12/12 08:57:06;;;;;;;12.70;7.00;;;2.10;99.90;;;;;;5050640;28;20590;-91
2021/12/12 08:59:37;;;;;;;17.70;7.60;;;2.10;99.90;;;;;;5054802;28;20960;-90
2021/12/12 09:02:09;;;;;;;16.57;7.30;;;2.10;99.90;;;;;;5041147;28;20452;-90
2021/12/12 09:04:40;;;;;;;18.43;7.27;;;2.20;99.90;;;;;;5054869;28;20444;-90
2021/12/12 09:07:11;;;;;;;14.10;6.67;;;2.20;99.90;;;;;;5060060;28;20463;-91
2021/12/12 09:09:42;;;;;;;15.13;7.40;;;2.30;99.90;;;;;;5058999;28;20841;-90
2021/12/12 09:12:13;;;;;;;20.40;5.77;;;2.30;99.90;;;;;;5054441;28;20551;-90
2021/12/12 09:14:48;;;;;;;10.40;5.20;;;2.40;99.90;;;;;;5053089;28;20452;-90
2021/12/12 09:17:18;;;;;;;15.83;5.70;;;2.50;99.90;;;;;;5055361;28;20476;-90
2021/12/12 09:19:51;;;;;;;15.23;5.87;;;2.50;99.90;;;;;;5056186;28;20985;-90
2021/12/12 09:22:24;;;;;;;10.23;5.47;;;2.60;99.90;;;;;;5062226;28;20534;-91
2021/12/12 09:24:57;;;;;;;13.70;5.43;;;2.60;99.90;;;;;;5058509;28;20538;-90
2021/12/12 09:27:27;;;;;;;9.07;5.03;;;2.70;99.90;;;;;;5057670;28;20460;-90
2021/12/12 09:29:58;;;;;;;14.03;5.90;;;2.80;99.90;;;;;;5078407;28;20437;-88
2021/12/12 09:32:30;;;;;;;13.30;5.30;;;2.90;99.90;;;;;;5078707;28;20459;-90
2021/12/12 09:35:01;;;;;;;15.47;4.97;;;2.90;99.90;;;;;;5054640;28;20441;-90
2021/12/12 09:37:35;;;;;;;19.10;5.27;;;3.00;99.90;;;;;;5060881;28;20460;-91
2021/12/12 09:40:12;;;;;;;14.47;5.77;;;3.00;99.90;;;;;;5056033;28;21015;-90
2021/12/12 09:42:57;;;;;;;12.40;5.77;;;3.00;99.90;;;;;;5055087;28;20511;-90
2021/12/12 09:46:01;;;;;;;13.97;5.83;;;3.10;99.90;;;;;;5042119;28;20972;-90
2021/12/12 09:51:50;;;;;;;8.73;5.43;;;3.20;99.90;;;;;;5054726;28;20459;-90
2021/12/12 09:54:34;;;;;;;11.07;5.00;;;3.20;99.90;;;;;;5058596;28;20512;-90
2021/12/12 09:57:07;;;;;;;13.27;5.63;;;3.30;99.90;;;;;;5044127;28;20534;-89
2021/12/12 09:59:55;;;;;;;16.73;5.20;;;3.30;99.90;;;;;;5054188;28;20473;-90
2021/12/12 10:02:29;;;;;;;8.90;5.70;;;3.30;99.90;;;;;;5047967;28;20437;-91
2021/12/12 10:05:14;;;;;;;14.43;6.03;;;3.20;99.90;;;;;;5042486;28;20819;-90
2021/12/12 10:07:58;;;;;;;19.00;6.37;;;3.20;99.90;;;;;;5057231;28;20470;-90
2021/12/12 10:10:29;;;;;;;17.23;6.20;;;3.10;99.90;;;;;;5054695;28;20978;-90
2021/12/12 10:13:02;;;;;;;17.57;5.60;;;3.00;99.90;;;;;;5038124;28;20445;-89
2021/12/12 10:15:34;;;;;;;16.50;6.13;;;3.00;99.90;;;;;;5037243;28;20453;-89
2021/12/12 10:18:09;;;;;;;8.10;5.83;;;3.00;99.90;;;;;;5069744;28;20471;-89
2021/12/12 10:20:40;;;;;;;13.47;6.07;;;3.00;99.90;;;;;;5056663;28;20479;-89
2021/12/12 10:23:17;;;;;;;16.90;6.27;;;3.00;99.90;;;;;;5058030;28;20447;-89
2021/12/12 10:25:52;;;;;;;13.83;7.30;;;3.00;99.90;;;;;;5066997;28;20947;-90
2021/12/12 10:28:22;;;;;;;9.07;4.40;;;3.20;99.90;;;;;;5071331;28;20476;-89
2021/12/12 10:30:57;;;;;;;16.03;7.00;;;3.10;99.90;;;;;;5067030;23;21119;-74
2021/12/12 10:33:33;;;;;;;12.87;6.60;;;3.10;99.90;;;;;;5032343;28;20456;-75
2021/12/12 10:36:05;;;;;;;12.23;6.20;;;3.10;99.90;;;;;;5032518;28;20495;-75
2021/12/12 10:38:39;;;;;;;11.37;6.90;;;3.10;99.90;;;;;;5046022;28;20476;-74
2021/12/12 10:41:11;;;;;;;17.53;7.23;;;3.10;99.90;;;;;;5045549;28;20542;-73
2021/12/12 10:43:40;;;;;;;14.57;6.90;;;3.10;99.90;;;;;;5048612;28;20506;-74
2021/12/12 10:46:11;;;;;;;14.43;7.03;;;3.10;99.90;;;;;;5045027;28;20547;-71
2021/12/12 10:48:51;;;;;;;15.00;7.67;;;3.00;99.90;;;;;;5043036;28;20622;-73
2021/12/12 10:51:21;;;;;;;12.80;7.23;;;3.00;99.90;;;;;;5051943;28;20497;-72
2021/12/12 10:53:57;;;;;;;15.63;6.40;;;3.00;99.90;;;;;;5052443;28;21057;-72
2021/12/12 10:56:35;;;;;;;14.27;7.50;;;3.00;99.90;;;;;;5055009;28;20509;-74
2021/12/12 10:59:11;;;;;;;11.20;6.80;;;3.00;99.90;;;;;;5059725;28;20518;-72
2021/12/12 11:01:43;;;;;;;14.97;7.13;;;3.00;99.90;;;;;;5041982;28;20449;-72
2021/12/12 11:04:15;;;;;;;11.43;7.27;;;3.00;99.90;;;;;;5046658;28;20952;-72
2021/12/12 11:06:46;;;;;;;14.27;6.70;;;3.00;99.90;;;;;;5050676;28;20545;-71
2021/12/12 11:09:18;;;;;;;12.23;8.13;;;3.00;99.90;;;;;;5051575;28;20481;-71
2021/12/12 11:11:49;;;;;;;14.30;7.43;;;2.90;99.90;;;;;;5052475;28;20447;-74
2021/12/12 11:14:20;;;;;;;10.80;6.67;;;2.90;99.90;;;;;;5055813;28;20447;-72
2021/12/12 11:16:52;;;;;;;13.00;7.03;;;2.90;99.90;;;;;;5057478;28;20541;-74
2021/12/12 11:19:29;;;;;;;10.80;7.27;;;2.90;99.90;;;;;;5072593;28;20478;-74
2021/12/12 11:22:01;;;;;;;12.47;7.03;;;3.00;99.90;;;;;;5049850;28;20449;-73
2021/12/12 11:24:32;;;;;;;10.00;6.90;;;3.00;99.90;;;;;;5045025;28;20516;-73
2021/12/12 11:27:03;;;;;;;17.73;6.83;;;3.10;99.90;;;;;;5063362;28;20456;-74
2021/12/12 11:29:38;;;;;;;13.50;6.90;;;3.10;99.90;;;;;;5051778;28;20819;-74
2021/12/12 11:32:09;;;;;;;11.53;6.53;;;3.20;99.90;;;;;;5060406;28;20455;-74
2021/12/12 11:34:37;;;;;;;14.20;6.30;;;3.20;99.90;;;;;;5038662;28;20516;-73
2021/12/12 11:37:13;;;;;;;9.00;5.87;;;3.20;99.90;;;;;;5041991;28;20453;-73
2021/12/12 11:39:47;;;;;;;11.00;6.93;;;3.20;99.90;;;;;;5050517;28;20456;-75
2021/12/12 11:42:21;;;;;;;14.70;7.03;;;3.10;99.90;;;;;;5049966;28;20995;-74
2021/12/12 11:44:56;;;;;;;11.73;6.70;;;3.10;99.90;;;;;;5050623;28;20509;-74
2021/12/12 11:47:33;;;;;;;15.33;6.77;;;3.20;99.90;;;;;;5055951;28;20444;-74
2021/12/12 11:50:07;;;;;;;10.83;7.20;;;3.20;99.90;;;;;;5072661;28;20493;-75
2021/12/12 11:52:42;;;;;;;14.00;7.27;;;3.20;99.90;;;;;;5050747;28;21063;-74
2021/12/12 11:55:13;;;;;;;16.30;7.73;;;3.20;99.90;;;;;;5041951;28;20502;-74
2021/12/12 11:57:48;;;;;;;13.77;7.60;;;3.20;99.90;;;;;;5050688;28;20473;-75
2021/12/12 12:00:18;;;;;;;12.67;7.30;;;3.20;99.90;;;;;;5051569;28;20570;-75
2021/12/12 12:02:55;;;;;;;13.13;7.53;;;3.20;99.90;;;;;;5063951;28;20807;-75
2021/12/12 12:05:33;;;;;;;12.80;6.80;;;3.20;99.90;;;;;;5069823;28;20841;-74
2021/12/12 12:08:07;;;;;;;9.03;6.97;;;3.20;99.90;;;;;;5069625;28;20471;-74
2021/12/12 12:10:46;;;;;;;14.43;8.00;;;3.20;99.90;;;;;;5039741;28;20445;-74
2021/12/12 12:13:26;;;;;;;13.87;7.30;;;3.20;99.90;;;;;;5066371;28;20946;-74
2021/12/12 12:15:57;;;;;;;13.50;8.10;;;3.20;99.90;;;;;;5057082;28;20479;-75
2021/12/12 12:18:35;;;;;;;10.23;7.93;;;3.20;99.90;;;;;;5049377;28;20476;-75
2021/12/12 12:21:11;;;;;;;13.83;7.10;;;3.20;99.90;;;;;;5052060;28;20987;-74
2021/12/12 12:24:10;;;;;;;18.07;8.80;;;3.20;99.90;;;;;;5070624;28;20574;-75
2021/12/12 12:26:56;;;;;;;14.67;8.03;;;3.20;99.90;;;;;;5055048;28;20471;-75
2021/12/12 12:30:07;;;;;;;10.90;7.63;;;3.30;99.90;;;;;;5056069;28;20472;-76
2021/12/12 12:33:25;;;;;;;15.90;8.48;;;3.30;99.90;;;;;;5054787;28;20545;-74
2021/12/12 12:36:39;;;;;;;17.70;7.53;;;3.30;99.90;;;;;;5059433;28;20222;-74
2021/12/12 12:39:43;;;;;;;8.97;7.40;;;3.40;99.90;;;;;;5040275;28;20471;-75
2021/12/12 12:42:47;;;;;;;11.57;7.50;;;3.40;99.90;;;;;;5061211;28;20476;-74
2021/12/12 12:46:11;;;;;;;14.37;7.80;;;3.40;99.90;;;;;;5045172;28;20986;-71
2021/12/12 12:49:15;;;;;;;15.23;8.20;;;3.40;99.90;;;;;;5055621;28;20467;-71
2021/12/12 12:52:32;;;;;;;12.47;7.07;;;3.40;99.90;;;;;;5054500;28;20439;-71
2021/12/12 12:55:30;;;;;;;12.63;7.67;;;3.40;99.90;;;;;;4920995;29;20473;-75
2021/12/12 12:58:06;;;;;;;10.43;6.63;;;3.40;99.90;;;;;;4945072;28;20583;-75
2021/12/12 13:00:36;;;;;;;18.23;7.87;;;3.40;99.90;;;;;;5031310;28;20488;-75
2021/12/12 13:03:27;;;;;;;9.93;7.00;;;3.50;99.90;;;;;;5050154;28;20479;-75
2021/12/12 13:06:27;;;;;;;11.17;7.10;;;3.50;99.90;;;;;;5050363;28;20521;-75
2021/12/12 13:09:17;;;;;;;12.90;7.30;;;3.50;99.90;;;;;;5038296;28;20611;-75
2021/12/12 13:12:08;;;;;;;12.87;7.80;;;3.50;99.90;;;;;;5041433;28;20459;-76
2021/12/12 13:14:48;;;;;;;25.53;8.00;;;3.50;99.90;;;;;;5055134;28;20540;-72
2021/12/12 13:17:26;;;;;;;25.23;7.40;;;3.50;99.90;;;;;;5064093;28;20462;-74
2021/12/12 13:20:08;;;;;;;11.67;7.77;;;3.50;99.90;;;;;;5050775;28;20445;-75
2021/12/12 13:22:41;;;;;;;10.90;7.13;;;3.60;99.90;;;;;;5054489;28;20516;-73
2021/12/12 13:25:15;;;;;;;14.93;8.20;;;3.60;99.90;;;;;;5046238;28;20459;-74
2021/12/12 13:30:43;;;;;;;13.87;8.90;;;3.50;99.90;;;;;;5052155;28;20455;-75